Time;durP1;ratioP1;P1;durP2;ratioP2;P2;SDS_P1;SDS_P2;PMS_P1;PMS_P2;Temp;Humidity;BMP_temperature;BMP_pressure;BME280_temperature;BME280_humidity;BME280_pressure;Samples;Min_cycle;Max_cycle;Signal;HPM_P1;HPM_P2
2023/03/21 00:00:55;;;;;;;5.28;4.88;;;;;;;;;;5076368;28;20113;-90
2023/03/21 00:03:23;;;;;;;4.07;3.85;;;;;;;;;;5073715;28;20056;-90
2023/03/21 00:05:52;;;;;;;3.55;3.35;;;;;;;;;;5073932;28;20040;-90
2023/03/21 00:08:19;;;;;;;3.70;3.38;;;;;;;;;;5073620;28;20052;-89
2023/03/21 00:10:45;;;;;;;4.25;4.00;;;;;;;;;;5073650;28;20109;-89
2023/03/21 00:13:12;;;;;;;2.92;2.78;;;;;;;;;;5073334;28;20048;-89
2023/03/21 00:15:48;;;;;;;4.00;3.80;;;;;;;;;;5087709;28;20071;-89
2023/03/21 00:18:15;;;;;;;2.65;2.47;;;;;;;;;;5093471;28;20488;-89
2023/03/21 00:20:50;;;;;;;3.28;3.10;;;;;;;;;;5079423;28;20070;-90
2023/03/21 00:23:17;;;;;;;2.83;2.63;;;;;;;;;;5053823;28;20456;-90
2023/03/21 00:25:43;;;;;;;3.40;2.55;;;;;;;;;;5053354;28;20497;-91
2023/03/21 00:28:10;;;;;;;4.32;4.00;;;;;;;;;;5052991;28;20053;-90
2023/03/21 00:30:36;;;;;;;3.50;3.30;;;;;;;;;;5066172;28;20044;-90
2023/03/21 00:33:03;;;;;;;4.05;3.75;;;;;;;;;;5072840;28;20048;-91
2023/03/21 00:35:29;;;;;;;4.13;2.88;;;;;;;;;;5072124;28;20064;-90
2023/03/21 00:37:57;;;;;;;3.03;2.83;;;;;;;;;;5073174;28;20547;-90
2023/03/21 00:40:24;;;;;;;3.53;3.33;;;;;;;;;;5073039;28;20452;-90
2023/03/21 00:42:50;;;;;;;2.72;2.55;;;;;;;;;;5072706;28;20056;-90
2023/03/21 00:45:18;;;;;;;2.90;2.22;;;;;;;;;;5082067;28;20051;-90
2023/03/21 00:47:44;;;;;;;2.70;2.50;;;;;;;;;;5092899;28;20052;-90
2023/03/21 00:50:11;;;;;;;2.97;2.78;;;;;;;;;;5092922;28;20457;-90
2023/03/21 00:52:38;;;;;;;2.22;2.03;;;;;;;;;;5093156;28;20131;-90
2023/03/21 00:55:07;;;;;;;2.33;2.08;;;;;;;;;;5093335;28;20080;-90
2023/03/21 00:57:33;;;;;;;1.92;1.83;;;;;;;;;;5093253;28;20066;-89
2023/03/21 01:00:00;;;;;;;4.00;3.58;;;;;;;;;;5086317;28;20049;-89
2023/03/21 01:02:26;;;;;;;3.08;2.88;;;;;;;;;;5072856;28;20057;-90
2023/03/21 01:04:53;;;;;;;5.57;3.67;;;;;;;;;;5072371;28;20117;-90
2023/03/21 01:07:20;;;;;;;4.55;4.25;;;;;;;;;;5072820;28;20139;-90
2023/03/21 01:09:46;;;;;;;3.05;2.85;;;;;;;;;;5072823;28;20044;-91
2023/03/21 01:12:14;;;;;;;3.30;3.13;;;;;;;;;;5073178;28;20109;-90
2023/03/21 01:14:40;;;;;;;3.90;3.03;;;;;;;;;;5073028;28;20094;-90
2023/03/21 01:17:07;;;;;;;2.78;2.65;;;;;;;;;;5073502;28;20106;-91
2023/03/21 01:19:34;;;;;;;2.40;2.28;;;;;;;;;;5073853;28;20125;-91
2023/03/21 01:22:01;;;;;;;2.83;2.67;;;;;;;;;;5072966;28;20052;-91
2023/03/21 01:24:27;;;;;;;4.28;3.97;;;;;;;;;;5072654;28;20052;-90
2023/03/21 01:26:54;;;;;;;3.88;3.42;;;;;;;;;;5072503;28;20524;-90
2023/03/21 01:29:21;;;;;;;4.82;4.57;;;;;;;;;;5072834;28;20057;-91
2023/03/21 01:31:48;;;;;;;3.08;2.92;;;;;;;;;;5072595;28;20460;-91
2023/03/21 01:34:14;;;;;;;2.38;2.28;;;;;;;;;;5073385;28;20048;-91
2023/03/21 01:36:41;;;;;;;3.28;2.83;;;;;;;;;;5072822;28;20505;-90
2023/03/21 01:39:07;;;;;;;3.00;2.80;;;;;;;;;;5073142;28;20049;-90
2023/03/21 01:41:35;;;;;;;4.20;3.80;;;;;;;;;;5072219;28;20045;-91
2023/03/21 01:44:01;;;;;;;2.70;2.50;;;;;;;;;;5072649;28;20045;-90
2023/03/21 01:46:36;;;;;;;2.70;2.50;;;;;;;;;;5075507;28;20048;-91
2023/03/21 01:49:04;;;;;;;2.63;2.50;;;;;;;;;;5074581;28;20570;-90
2023/03/21 01:51:33;;;;;;;4.65;4.43;;;;;;;;;;5076148;28;20052;-90
2023/03/21 01:54:00;;;;;;;4.78;3.80;;;;;;;;;;5076847;28;20045;-91
2023/03/21 01:56:29;;;;;;;2.08;1.95;;;;;;;;;;5076496;28;20136;-91
2023/03/21 01:58:58;;;;;;;4.22;3.85;;;;;;;;;;5076007;28;20044;-91
2023/03/21 02:01:25;;;;;;;5.10;4.57;;;;;;;;;;5076040;28;20044;-91
2023/03/21 02:03:53;;;;;;;3.40;3.17;;;;;;;;;;5076144;28;20041;-90
2023/03/21 02:06:30;;;;;;;4.05;3.65;;;;;;;;;;5075901;28;20503;-90
2023/03/21 02:08:58;;;;;;;2.22;2.13;;;;;;;;;;5075462;28;20114;-90
2023/03/21 02:11:25;;;;;;;3.88;2.80;;;;;;;;;;5076091;28;20094;-89
2023/03/21 02:13:52;;;;;;;3.30;3.00;;;;;;;;;;5075661;28;20055;-90
2023/03/21 02:16:23;;;;;;;3.63;3.42;;;;;;;;;;5076281;28;20464;-90
2023/03/21 02:18:55;;;;;;;2.78;2.30;;;;;;;;;;5075785;28;20474;-90
2023/03/21 02:21:33;;;;;;;3.25;2.95;;;;;;;;;;5075677;28;20452;-90
2023/03/21 02:24:16;;;;;;;3.55;3.35;;;;;;;;;;5075805;28;20044;-92
2023/03/21 02:26:57;;;;;;;1.33;1.30;;;;;;;;;;5076410;28;20102;-91
2023/03/21 02:29:33;;;;;;;1.98;1.88;;;;;;;;;;5073046;28;20049;-91
2023/03/21 02:32:03;;;;;;;2.75;2.35;;;;;;;;;;5076066;28;20053;-90
2023/03/21 02:34:47;;;;;;;5.20;3.13;;;;;;;;;;5076070;28;20547;-92
2023/03/21 02:37:19;;;;;;;2.72;2.53;;;;;;;;;;5075735;28;20060;-92
2023/03/21 02:39:50;;;;;;;3.75;3.53;;;;;;;;;;5075973;28;20048;-91
2023/03/21 02:42:20;;;;;;;3.30;2.50;;;;;;;;;;5075388;28;20048;-91
2023/03/21 02:44:49;;;;;;;3.13;2.90;;;;;;;;;;5075496;28;20110;-90
2023/03/21 02:47:20;;;;;;;2.17;2.05;;;;;;;;;;5075217;28;20183;-91
2023/03/21 02:49:50;;;;;;;2.60;2.40;;;;;;;;;;5075264;28;20102;-89
2023/03/21 02:52:19;;;;;;;2.05;1.95;;;;;;;;;;5074824;28;20132;-90
2023/03/21 02:54:47;;;;;;;2.13;2.03;;;;;;;;;;5075068;28;20044;-90
2023/03/21 02:57:15;;;;;;;2.60;2.08;;;;;;;;;;5073770;28;20086;-90
2023/03/21 02:59:42;;;;;;;3.10;2.40;;;;;;;;;;5074624;28;20164;-90
2023/03/21 03:02:09;;;;;;;1.88;1.77;;;;;;;;;;5074893;28;20048;-90
2023/03/21 03:04:35;;;;;;;2.80;2.40;;;;;;;;;;5074801;28;20049;-90
2023/03/21 03:07:11;;;;;;;2.85;2.65;;;;;;;;;;5074523;28;20391;-90
2023/03/21 03:09:45;;;;;;;2.65;2.42;;;;;;;;;;5074850;28;20129;-90
2023/03/21 03:12:15;;;;;;;2.05;1.95;;;;;;;;;;5075456;28;20117;-90
2023/03/21 03:14:47;;;;;;;2.05;1.95;;;;;;;;;;5074837;28;20097;-90
2023/03/21 03:17:30;;;;;;;2.75;2.60;;;;;;;;;;5074423;28;20056;-89
2023/03/21 03:20:09;;;;;;;2.50;2.40;;;;;;;;;;5074422;28;20491;-90
2023/03/21 03:22:42;;;;;;;3.42;3.22;;;;;;;;;;5074395;28;20135;-88
2023/03/21 03:25:13;;;;;;;3.00;2.75;;;;;;;;;;5074104;28;20049;-90
2023/03/21 03:27:42;;;;;;;2.33;2.15;;;;;;;;;;5054006;28;20056;-90
2023/03/21 03:30:09;;;;;;;4.00;3.70;;;;;;;;;;5055191;28;20115;-91
2023/03/21 03:32:37;;;;;;;3.92;3.75;;;;;;;;;;5054324;28;20053;-92
2023/03/21 03:35:05;;;;;;;2.65;2.50;;;;;;;;;;5054740;28;20057;-92
2023/03/21 03:37:33;;;;;;;3.20;3.00;;;;;;;;;;5054893;28;20056;-91
2023/03/21 03:40:04;;;;;;;3.05;2.90;;;;;;;;;;5055262;28;20053;-91
2023/03/21 03:42:35;;;;;;;2.85;2.65;;;;;;;;;;5054850;28;20060;-92
2023/03/21 03:45:02;;;;;;;4.47;4.07;;;;;;;;;;5054752;28;20239;-91
2023/03/21 03:47:33;;;;;;;3.13;2.92;;;;;;;;;;5054058;28;20099;-91
2023/03/21 03:50:02;;;;;;;4.93;4.40;;;;;;;;;;5054586;28;20071;-91
2023/03/21 03:52:31;;;;;;;3.88;2.00;;;;;;;;;;5054130;28;20090;-91
2023/03/21 03:54:58;;;;;;;3.13;2.92;;;;;;;;;;5053953;28;20106;-91
2023/03/21 03:57:25;;;;;;;1.65;1.55;;;;;;;;;;5087021;28;20728;-90
2023/03/21 03:59:53;;;;;;;8.38;2.45;;;;;;;;;;5094561;28;20044;-91
2023/03/21 04:02:20;;;;;;;5.30;3.35;;;;;;;;;;5094892;28;20048;-92
2023/03/21 04:04:51;;;;;;;2.80;2.58;;;;;;;;;;5094315;28;20044;-91
2023/03/21 04:07:18;;;;;;;3.08;2.88;;;;;;;;;;5094127;28;20051;-92
2023/03/21 04:09:44;;;;;;;3.03;2.83;;;;;;;;;;5094131;28;20113;-92
2023/03/21 04:12:11;;;;;;;3.10;2.90;;;;;;;;;;5094291;28;20052;-92
2023/03/21 04:14:38;;;;;;;2.42;2.30;;;;;;;;;;5093894;28;20040;-91
2023/03/21 04:17:06;;;;;;;3.42;3.22;;;;;;;;;;5094712;28;20143;-92
2023/03/21 04:19:32;;;;;;;2.83;2.63;;;;;;;;;;5094591;28;20051;-92
2023/03/21 04:21:59;;;;;;;4.03;2.05;;;;;;;;;;5094630;28;20455;-92
2023/03/21 04:24:25;;;;;;;4.38;3.25;;;;;;;;;;5094252;28;20056;-92
2023/03/21 04:26:52;;;;;;;3.63;3.33;;;;;;;;;;5094119;28;20089;-92
2023/03/21 04:29:19;;;;;;;3.15;2.95;;;;;;;;;;5093750;28;20050;-91
2023/03/21 04:31:48;;;;;;;3.42;3.13;;;;;;;;;;5093715;28;20051;-91
2023/03/21 04:34:16;;;;;;;4.80;3.15;;;;;;;;;;5093568;28;20056;-90
2023/03/21 04:36:44;;;;;;;4.65;4.25;;;;;;;;;;5084285;28;20501;-90
2023/03/21 04:39:12;;;;;;;3.67;3.40;;;;;;;;;;5073392;28;20569;-91
2023/03/21 04:41:39;;;;;;;2.95;2.75;;;;;;;;;;5073037;28;20413;-91
2023/03/21 04:44:05;;;;;;;3.35;3.15;;;;;;;;;;5073293;28;20048;-91
2023/03/21 04:46:32;;;;;;;4.72;3.45;;;;;;;;;;5073243;28;20088;-91
2023/03/21 04:48:59;;;;;;;3.50;3.20;;;;;;;;;;5073375;28;20052;-90
2023/03/21 04:51:27;;;;;;;3.92;3.70;;;;;;;;;;5078289;28;20077;-91
2023/03/21 04:53:56;;;;;;;4.00;3.53;;;;;;;;;;5093872;28;20063;-91
2023/03/21 04:56:24;;;;;;;2.72;2.55;;;;;;;;;;5093302;28;20097;-91
2023/03/21 04:58:51;;;;;;;5.80;2.30;;;;;;;;;;5093789;28;20127;-92
2023/03/21 05:01:19;;;;;;;3.53;3.30;;;;;;;;;;5093219;28;20044;-92
2023/03/21 05:03:46;;;;;;;3.58;3.38;;;;;;;;;;5093882;28;20124;-91
2023/03/21 05:06:12;;;;;;;3.65;3.35;;;;;;;;;;5093463;28;20074;-92
2023/03/21 05:08:40;;;;;;;3.30;3.10;;;;;;;;;;5094232;28;20108;-91
2023/03/21 05:11:07;;;;;;;2.58;2.45;;;;;;;;;;5093694;28;20052;-91
2023/03/21 05:13:33;;;;;;;2.53;2.35;;;;;;;;;;5093434;28;20044;-91
2023/03/21 05:16:00;;;;;;;3.72;3.42;;;;;;;;;;5093695;28;20047;-91
2023/03/21 05:18:26;;;;;;;3.85;3.58;;;;;;;;;;5093029;28;20048;-92
2023/03/21 05:20:54;;;;;;;4.32;4.00;;;;;;;;;;5095745;28;20051;-92
2023/03/21 05:23:20;;;;;;;3.28;3.05;;;;;;;;;;5097369;28;20075;-91
2023/03/21 05:25:49;;;;;;;3.88;3.60;;;;;;;;;;5097527;28;20063;-92
2023/03/21 05:28:17;;;;;;;4.28;3.97;;;;;;;;;;5097375;28;20097;-91
2023/03/21 05:30:44;;;;;;;3.75;3.47;;;;;;;;;;5097652;28;20134;-92
2023/03/21 05:33:10;;;;;;;4.13;3.72;;;;;;;;;;5097460;28;20048;-92
2023/03/21 05:35:37;;;;;;;3.42;3.10;;;;;;;;;;5097313;28;20052;-92
2023/03/21 05:38:03;;;;;;;4.43;4.10;;;;;;;;;;5097023;28;20044;-91
2023/03/21 05:40:30;;;;;;;3.65;3.45;;;;;;;;;;5097808;28;20098;-91
2023/03/21 05:42:58;;;;;;;4.43;4.20;;;;;;;;;;5097329;28;20052;-91
2023/03/21 05:45:24;;;;;;;3.53;3.22;;;;;;;;;;5097172;28;20055;-91
2023/03/21 05:47:51;;;;;;;6.03;5.47;;;;;;;;;;5097363;28;20056;-91
2023/03/21 05:50:18;;;;;;;5.10;4.57;;;;;;;;;;5096986;28;20105;-89
2023/03/21 05:52:44;;;;;;;4.85;4.45;;;;;;;;;;5083626;28;20056;-90
2023/03/21 05:55:11;;;;;;;4.60;3.58;;;;;;;;;;5076774;28;20500;-90
2023/03/21 05:57:39;;;;;;;3.28;3.03;;;;;;;;;;5076644;28;20048;-90
2023/03/21 06:00:08;;;;;;;5.10;3.15;;;;;;;;;;5076718;28;20060;-90
2023/03/21 06:02:35;;;;;;;5.00;4.63;;;;;;;;;;5077219;28;20132;-90
2023/03/21 06:05:01;;;;;;;2.75;2.55;;;;;;;;;;5077334;28;20044;-90
2023/03/21 06:07:28;;;;;;;5.65;5.35;;;;;;;;;;5077317;28;20102;-91
2023/03/21 06:09:54;;;;;;;4.68;4.28;;;;;;;;;;5085585;28;20397;-90
2023/03/21 06:12:21;;;;;;;4.82;4.40;;;;;;;;;;5086476;28;20098;-90
2023/03/21 06:14:47;;;;;;;5.13;4.70;;;;;;;;;;5085160;28;20459;-90
2023/03/21 06:17:18;;;;;;;7.22;6.25;;;;;;;;;;5088081;28;20301;-89
2023/03/21 06:19:45;;;;;;;4.25;3.53;;;;;;;;;;5085081;28;20098;-90
2023/03/21 06:22:11;;;;;;;3.42;3.22;;;;;;;;;;5082640;28;20041;-90
2023/03/21 06:24:38;;;;;;;8.93;4.70;;;;;;;;;;5096533;28;20044;-90
2023/03/21 06:27:05;;;;;;;5.32;5.03;;;;;;;;;;5096656;28;20044;-91
2023/03/21 06:29:31;;;;;;;4.43;4.13;;;;;;;;;;5096845;28;20051;-91
2023/03/21 06:31:58;;;;;;;5.03;4.57;;;;;;;;;;5095068;28;20048;-90
2023/03/21 06:34:26;;;;;;;4.97;4.60;;;;;;;;;;5096927;28;20511;-90
2023/03/21 06:36:53;;;;;;;6.85;6.45;;;;;;;;;;5096397;28;20056;-91
2023/03/21 06:39:20;;;;;;;4.75;3.78;;;;;;;;;;5096132;28;20052;-90
2023/03/21 06:41:46;;;;;;;4.75;4.20;;;;;;;;;;5096587;28;20109;-90
2023/03/21 06:44:13;;;;;;;4.43;3.90;;;;;;;;;;5095625;28;20055;-91
2023/03/21 06:46:39;;;;;;;3.90;2.97;;;;;;;;;;5094914;28;20048;-91
2023/03/21 06:49:06;;;;;;;3.35;3.15;;;;;;;;;;5075855;28;20052;-91
2023/03/21 06:51:34;;;;;;;2.58;2.47;;;;;;;;;;5075390;28;20048;-91
2023/03/21 06:54:00;;;;;;;4.30;4.00;;;;;;;;;;5075232;28;20041;-90
2023/03/21 06:56:27;;;;;;;4.38;3.97;;;;;;;;;;5075795;28;20452;-91
2023/03/21 06:58:53;;;;;;;4.30;3.63;;;;;;;;;;5075332;28;20102;-90
2023/03/21 07:01:20;;;;;;;4.40;4.05;;;;;;;;;;5075656;28;20052;-91
2023/03/21 07:03:47;;;;;;;5.93;5.63;;;;;;;;;;5075709;28;20536;-91
2023/03/21 07:06:13;;;;;;;6.05;5.43;;;;;;;;;;5075440;28;20052;-91
2023/03/21 07:08:41;;;;;;;5.43;5.13;;;;;;;;;;5091815;28;20052;-91
2023/03/21 07:11:08;;;;;;;4.97;4.70;;;;;;;;;;5075470;28;20048;-90
2023/03/21 07:13:35;;;;;;;5.22;4.85;;;;;;;;;;5074905;28;20053;-90
2023/03/21 07:16:01;;;;;;;6.15;5.63;;;;;;;;;;5075287;28;20098;-91
2023/03/21 07:18:29;;;;;;;6.05;5.55;;;;;;;;;;5075106;28;20048;-91
2023/03/21 07:20:56;;;;;;;6.82;6.40;;;;;;;;;;5075707;28;20057;-91
2023/03/21 07:23:24;;;;;;;3.97;3.67;;;;;;;;;;5088677;28;20748;-90
2023/03/21 07:25:52;;;;;;;6.13;5.50;;;;;;;;;;5095316;28;20055;-90
2023/03/21 07:28:19;;;;;;;5.03;4.43;;;;;;;;;;5096309;28;20047;-91
2023/03/21 07:30:51;;;;;;;6.90;6.38;;;;;;;;;;5095965;28;20113;-91
2023/03/21 07:33:17;;;;;;;7.70;7.10;;;;;;;;;;5095277;28;20489;-92
2023/03/21 07:35:44;;;;;;;4.50;4.20;;;;;;;;;;5094644;28;20129;-92
2023/03/21 07:38:12;;;;;;;5.25;4.78;;;;;;;;;;5084114;28;20056;-92
2023/03/21 07:40:39;;;;;;;7.13;6.38;;;;;;;;;;5075081;28;20044;-92
2023/03/21 07:43:07;;;;;;;6.15;5.75;;;;;;;;;;5074262;28;20066;-91
2023/03/21 07:45:33;;;;;;;5.03;4.63;;;;;;;;;;5074425;28;20082;-92
2023/03/21 07:48:00;;;;;;;5.13;4.70;;;;;;;;;;5074464;28;20045;-92
2023/03/21 07:50:27;;;;;;;9.02;8.43;;;;;;;;;;5074601;28;20113;-92
2023/03/21 07:52:54;;;;;;;7.47;6.90;;;;;;;;;;5074113;28;20074;-93
2023/03/21 07:55:20;;;;;;;5.93;5.43;;;;;;;;;;5074092;28;20052;-91
2023/03/21 07:57:50;;;;;;;8.68;8.05;;;;;;;;;;5073912;28;20498;-93
2023/03/21 08:00:21;;;;;;;7.38;6.80;;;;;;;;;;5074106;28;20062;-92
2023/03/21 08:02:48;;;;;;;9.35;8.70;;;;;;;;;;5073966;28;20062;-92
2023/03/21 08:05:17;;;;;;;9.00;8.30;;;;;;;;;;5074514;28;20055;-91
2023/03/21 08:07:44;;;;;;;9.70;6.82;;;;;;;;;;5074463;28;20132;-91
2023/03/21 08:10:11;;;;;;;9.70;6.45;;;;;;;;;;5074871;28;20512;-91
2023/03/21 08:12:38;;;;;;;6.25;5.82;;;;;;;;;;5074425;28;20059;-91
2023/03/21 08:15:04;;;;;;;6.63;6.22;;;;;;;;;;5074714;28;20045;-92
2023/03/21 08:17:32;;;;;;;7.15;6.63;;;;;;;;;;5074051;28;20049;-92
2023/03/21 08:19:59;;;;;;;6.10;5.63;;;;;;;;;;5074662;28;20456;-92
2023/03/21 08:22:25;;;;;;;7.63;7.15;;;;;;;;;;5076049;28;20056;-92
2023/03/21 08:24:52;;;;;;;10.23;9.65;;;;;;;;;;5072687;28;20044;-92
2023/03/21 08:27:19;;;;;;;9.25;8.52;;;;;;;;;;5074582;28;20074;-92
2023/03/21 08:29:46;;;;;;;8.50;7.70;;;;;;;;;;5074173;28;20486;-92
2023/03/21 08:32:13;;;;;;;7.72;6.63;;;;;;;;;;5074577;28;20476;-92
2023/03/21 08:34:41;;;;;;;6.43;5.93;;;;;;;;;;5094277;28;20102;-92
2023/03/21 08:37:08;;;;;;;7.22;6.72;;;;;;;;;;5093773;28;20135;-92
2023/03/21 08:39:34;;;;;;;7.85;7.30;;;;;;;;;;5094065;28;20055;-91
2023/03/21 08:42:01;;;;;;;11.18;10.13;;;;;;;;;;5094033;28;20048;-91
2023/03/21 08:44:27;;;;;;;8.20;7.50;;;;;;;;;;5094568;28;20455;-91
2023/03/21 08:46:54;;;;;;;7.63;7.13;;;;;;;;;;5093894;28;20090;-90
2023/03/21 08:49:20;;;;;;;5.82;5.32;;;;;;;;;;5094527;28;20097;-90
2023/03/21 08:51:48;;;;;;;5.75;5.25;;;;;;;;;;5094414;28;20519;-90
2023/03/21 08:54:19;;;;;;;5.95;5.45;;;;;;;;;;5093791;28;20052;-90
2023/03/21 08:56:45;;;;;;;;;;;;;;;;;;5093989;28;20048;-91
2023/03/21 08:59:11;;;;;;;5.43;5.00;;;;;;;;;;5076978;28;19946;-92
2023/03/21 09:01:38;;;;;;;7.85;7.32;;;;;;;;;;5074007;28;20402;-92
2023/03/21 09:04:06;;;;;;;6.65;6.13;;;;;;;;;;5074029;28;20056;-91
2023/03/21 09:06:33;;;;;;;7.10;6.40;;;;;;;;;;5073621;28;20053;-91
2023/03/21 09:09:01;;;;;;;6.88;6.38;;;;;;;;;;5053207;28;20049;-92
2023/03/21 09:11:27;;;;;;;7.25;6.85;;;;;;;;;;5053679;28;20114;-92
2023/03/21 09:13:54;;;;;;;7.55;7.10;;;;;;;;;;5053496;28;20140;-92
2023/03/21 09:16:20;;;;;;;9.15;8.55;;;;;;;;;;5053772;28;20452;-92
2023/03/21 09:18:48;;;;;;;8.65;7.88;;;;;;;;;;5053342;28;20097;-92
2023/03/21 09:21:15;;;;;;;8.88;8.10;;;;;;;;;;5053832;28;20084;-91
2023/03/21 09:23:43;;;;;;;8.65;7.88;;;;;;;;;;5071514;28;20047;-93
2023/03/21 09:26:12;;;;;;;10.77;10.05;;;;;;;;;;5093667;28;20431;-90
2023/03/21 09:28:39;;;;;;;7.97;7.38;;;;;;;;;;5084979;28;20044;-90
2023/03/21 09:31:07;;;;;;;8.32;7.82;;;;;;;;;;5073253;28;20445;-91
2023/03/21 09:33:34;;;;;;;9.25;8.50;;;;;;;;;;5073647;28;20094;-92
2023/03/21 09:36:00;;;;;;;8.52;7.88;;;;;;;;;;5073543;28;20057;-92
2023/03/21 09:38:29;;;;;;;8.90;8.00;;;;;;;;;;5072875;28;20057;-90
2023/03/21 09:41:05;;;;;;;9.80;8.88;;;;;;;;;;5073244;28;20056;-90
2023/03/21 09:43:39;;;;;;;9.02;7.63;;;;;;;;;;5073098;28;20055;-92
2023/03/21 09:46:09;;;;;;;8.90;8.10;;;;;;;;;;5073640;28;20084;-92
2023/03/21 09:48:39;;;;;;;13.00;12.07;;;;;;;;;;5079882;28;20440;-91
2023/03/21 09:51:11;;;;;;;6.90;6.38;;;;;;;;;;5093131;28;20054;-91
2023/03/21 09:53:38;;;;;;;6.90;6.30;;;;;;;;;;5093229;28;20131;-91
2023/03/21 09:56:05;;;;;;;6.03;5.57;;;;;;;;;;5093303;28;20052;-91
2023/03/21 09:58:35;;;;;;;7.85;7.25;;;;;;;;;;5093085;28;20056;-92
2023/03/21 10:01:09;;;;;;;8.05;7.05;;;;;;;;;;5093324;28;20493;-91
2023/03/21 10:03:36;;;;;;;8.40;7.82;;;;;;;;;;5093140;28;20052;-92
2023/03/21 10:06:07;;;;;;;8.93;8.23;;;;;;;;;;5094350;28;20048;-90
2023/03/21 10:08:35;;;;;;;7.20;6.50;;;;;;;;;;5090667;28;20136;-91
2023/03/21 10:11:04;;;;;;;8.93;6.25;;;;;;;;;;5076153;28;20045;-90
2023/03/21 10:13:33;;;;;;;8.52;7.97;;;;;;;;;;5076687;28;20113;-90
2023/03/21 10:16:01;;;;;;;8.05;7.32;;;;;;;;;;5076549;28;20052;-91
2023/03/21 10:18:29;;;;;;;7.90;7.30;;;;;;;;;;5076333;28;20044;-91
2023/03/21 10:20:57;;;;;;;8.25;7.65;;;;;;;;;;5076768;28;20046;-89
2023/03/21 10:23:26;;;;;;;8.55;8.05;;;;;;;;;;5079578;28;20048;-90
2023/03/21 10:25:54;;;;;;;8.88;8.18;;;;;;;;;;5096335;28;20078;-90
2023/03/21 10:28:22;;;;;;;10.32;9.73;;;;;;;;;;5094185;28;20048;-89
2023/03/21 10:30:49;;;;;;;10.43;9.70;;;;;;;;;;5075593;28;20468;-88
2023/03/21 10:33:19;;;;;;;9.15;8.18;;;;;;;;;;5075821;28;20048;-90
2023/03/21 10:35:49;;;;;;;11.77;10.02;;;;;;;;;;5075971;28;20056;-90
2023/03/21 10:38:17;;;;;;;10.32;9.52;;;;;;;;;;5075053;28;20045;-90
2023/03/21 10:40:44;;;;;;;9.40;8.68;;;;;;;;;;5076310;28;20118;-90
2023/03/21 10:43:18;;;;;;;8.05;7.55;;;;;;;;;;5076214;28;20098;-89
2023/03/21 10:45:45;;;;;;;8.98;8.07;;;;;;;;;;5096426;28;20082;-90
2023/03/21 10:48:12;;;;;;;7.50;7.00;;;;;;;;;;5096011;28;20044;-90
2023/03/21 10:50:38;;;;;;;10.50;9.68;;;;;;;;;;5095949;28;20051;-89
2023/03/21 10:53:14;;;;;;;8.35;7.75;;;;;;;;;;5095661;28;20044;-90
2023/03/21 10:55:41;;;;;;;7.15;6.15;;;;;;;;;;5096025;28;20048;-90
2023/03/21 10:58:10;;;;;;;6.25;5.85;;;;;;;;;;5095882;28;20144;-90
2023/03/21 11:00:40;;;;;;;9.82;9.10;;;;;;;;;;5075617;28;20048;-90
2023/03/21 11:03:06;;;;;;;9.60;8.73;;;;;;;;;;5074721;28;20056;-90
2023/03/21 11:05:35;;;;;;;7.45;6.93;;;;;;;;;;5094665;28;20056;-90
2023/03/21 11:08:03;;;;;;;7.38;6.90;;;;;;;;;;5094638;28;20048;-90
2023/03/21 11:10:33;;;;;;;7.82;7.32;;;;;;;;;;5076240;28;20097;-90
2023/03/21 11:13:02;;;;;;;9.32;7.00;;;;;;;;;;5074629;28;20052;-89
2023/03/21 11:15:29;;;;;;;7.70;7.10;;;;;;;;;;5093114;28;20048;-89
2023/03/21 11:17:56;;;;;;;8.88;8.27;;;;;;;;;;5094849;28;20123;-90
2023/03/21 11:20:23;;;;;;;7.45;6.90;;;;;;;;;;5095417;28;20188;-89
2023/03/21 11:22:54;;;;;;;8.20;7.75;;;;;;;;;;5094884;28;20097;-90
2023/03/21 11:25:22;;;;;;;7.30;6.70;;;;;;;;;;5094895;28;20086;-89
2023/03/21 11:27:50;;;;;;;9.23;8.73;;;;;;;;;;5094600;28;20083;-89
2023/03/21 11:30:21;;;;;;;11.30;10.52;;;;;;;;;;5079278;28;20456;-90
2023/03/21 11:32:47;;;;;;;;;;;;;;;;;;5075067;28;20060;-91
2023/03/21 11:35:16;;;;;;;8.35;7.63;;;;;;;;;;5074394;28;19920;-90
2023/03/21 11:37:45;;;;;;;6.47;6.07;;;;;;;;;;5074503;28;20044;-91
2023/03/21 11:40:19;;;;;;;6.75;6.35;;;;;;;;;;5074610;28;20127;-90
2023/03/21 11:42:48;;;;;;;7.45;6.72;;;;;;;;;;5073569;28;20048;-89
2023/03/21 11:45:18;;;;;;;8.45;7.72;;;;;;;;;;5088739;28;20055;-92
2023/03/21 11:47:45;;;;;;;6.63;6.20;;;;;;;;;;5094580;28;20101;-91
2023/03/21 11:50:16;;;;;;;7.55;6.95;;;;;;;;;;5081400;28;20077;-90
2023/03/21 11:52:46;;;;;;;11.50;10.55;;;;;;;;;;5074873;28;20404;-91
2023/03/21 11:55:36;;;;;;;9.85;8.48;;;;;;;;;;5088040;28;20052;-90
2023/03/21 11:58:13;;;;;;;7.53;7.00;;;;;;;;;;5074489;28;20044;-91
2023/03/21 12:00:46;;;;;;;6.50;6.00;;;;;;;;;;5094929;28;20497;-90
2023/03/21 12:03:35;;;;;;;12.10;11.45;;;;;;;;;;5093864;28;20362;-90
2023/03/21 12:06:03;;;;;;;5.60;5.30;;;;;;;;;;5073961;28;20052;-90
2023/03/21 12:08:34;;;;;;;7.97;7.53;;;;;;;;;;5073738;28;20052;-91
2023/03/21 12:11:03;;;;;;;8.23;7.82;;;;;;;;;;5074114;28;20068;-91
2023/03/21 12:13:36;;;;;;;7.68;7.28;;;;;;;;;;5073983;28;20052;-91
2023/03/21 12:16:16;;;;;;;7.75;7.25;;;;;;;;;;5073763;28;20102;-90
2023/03/21 12:18:47;;;;;;;4.53;4.22;;;;;;;;;;5073241;28;20048;-91
2023/03/21 12:21:17;;;;;;;7.80;7.30;;;;;;;;;;5073584;28;20056;-92
2023/03/21 12:23:50;;;;;;;8.55;8.05;;;;;;;;;;5074032;28;20075;-91
2023/03/21 12:26:22;;;;;;;7.93;7.55;;;;;;;;;;5053443;28;20392;-91
2023/03/21 12:28:53;;;;;;;4.38;4.18;;;;;;;;;;5053789;28;20044;-91
2023/03/21 12:31:25;;;;;;;8.10;7.70;;;;;;;;;;5053786;28;20457;-90
2023/03/21 12:33:59;;;;;;;6.13;5.78;;;;;;;;;;5054312;28;20469;-91
2023/03/21 12:36:40;;;;;;;6.32;5.93;;;;;;;;;;5053485;28;20649;-92
2023/03/21 12:39:11;;;;;;;7.05;6.75;;;;;;;;;;5055831;28;20144;-91
2023/03/21 12:41:42;;;;;;;5.43;5.13;;;;;;;;;;5093641;28;20052;-90
2023/03/21 12:44:10;;;;;;;6.25;5.95;;;;;;;;;;5093479;28;20051;-91
2023/03/21 12:46:40;;;;;;;5.68;5.22;;;;;;;;;;5093849;28;20048;-90
2023/03/21 12:49:09;;;;;;;4.93;4.63;;;;;;;;;;5093821;28;20044;-91
2023/03/21 12:51:38;;;;;;;7.57;7.18;;;;;;;;;;5093394;28;20048;-90
2023/03/21 12:54:07;;;;;;;5.57;5.18;;;;;;;;;;5093487;28;20048;-91
2023/03/21 12:56:37;;;;;;;5.15;4.85;;;;;;;;;;5093653;28;20052;-91
2023/03/21 12:59:08;;;;;;;7.65;7.10;;;;;;;;;;5093693;28;20454;-91
2023/03/21 13:01:37;;;;;;;6.78;6.43;;;;;;;;;;5073714;28;20102;-91
2023/03/21 13:04:16;;;;;;;6.95;6.30;;;;;;;;;;5074911;28;20129;-92
2023/03/21 13:06:44;;;;;;;6.57;6.20;;;;;;;;;;5063178;28;20048;-90
2023/03/21 13:09:14;;;;;;;7.45;6.95;;;;;;;;;;5074150;28;20052;-92
2023/03/21 13:11:41;;;;;;;;;;;;;;;;;;5075460;28;20048;-91
2023/03/21 13:14:10;;;;;;;5.20;4.90;;;;;;;;;;5074939;28;19925;-92
2023/03/21 13:16:39;;;;;;;7.13;5.55;;;;;;;;;;5074731;28;20052;-91
2023/03/21 13:19:11;;;;;;;7.80;7.45;;;;;;;;;;5074661;28;20440;-92
2023/03/21 13:21:43;;;;;;;5.97;5.68;;;;;;;;;;5059686;28;20044;-91
2023/03/21 13:24:19;;;;;;;5.82;5.53;;;;;;;;;;5074583;28;20074;-91
2023/03/21 13:26:49;;;;;;;4.97;4.70;;;;;;;;;;5066033;28;20051;-91
2023/03/21 13:29:23;;;;;;;5.60;5.22;;;;;;;;;;5074133;28;20037;-91
2023/03/21 13:31:50;;;;;;;6.10;5.78;;;;;;;;;;5073610;28;20127;-91
2023/03/21 13:34:21;;;;;;;6.65;6.35;;;;;;;;;;5073795;28;20170;-91
2023/03/21 13:36:47;;;;;;;;;;;;;;;;;;5055519;28;20053;-91
2023/03/21 13:39:17;;;;;;;6.15;5.82;;;;;;;;;;5053150;28;19921;-91
2023/03/21 13:41:46;;;;;;;5.07;4.85;;;;;;;;;;5095151;28;20052;-92
2023/03/21 13:44:19;;;;;;;7.50;7.15;;;;;;;;;;5097416;28;20093;-89
2023/03/21 13:46:53;;;;;;;7.40;7.00;;;;;;;;;;5076974;28;20074;-89
2023/03/21 13:49:28;;;;;;;10.43;9.73;;;;;;;;;;5078422;28;20452;-89
2023/03/21 13:51:55;;;;;;;6.30;5.93;;;;;;;;;;5079967;28;20041;-89
2023/03/21 13:54:24;;;;;;;6.72;6.32;;;;;;;;;;5085103;28;20054;-89
2023/03/21 13:56:54;;;;;;;5.35;5.07;;;;;;;;;;5085752;28;20100;-89
2023/03/21 13:59:36;;;;;;;5.90;5.60;;;;;;;;;;5083349;28;20112;-89
2023/03/21 14:02:08;;;;;;;4.82;4.53;;;;;;;;;;5062063;28;20083;-90
2023/03/21 14:04:36;;;;;;;6.47;6.07;;;;;;;;;;5063142;28;20486;-91
2023/03/21 14:07:05;;;;;;;6.90;6.60;;;;;;;;;;5077015;28;20475;-91
2023/03/21 14:09:32;;;;;;;6.40;6.00;;;;;;;;;;5076045;28;20041;-91
2023/03/21 14:12:00;;;;;;;5.95;5.65;;;;;;;;;;5076097;28;20053;-91
2023/03/21 14:14:29;;;;;;;7.43;7.05;;;;;;;;;;5076688;28;20048;-91
2023/03/21 14:16:55;;;;;;;7.47;7.03;;;;;;;;;;5076314;28;20056;-91
2023/03/21 14:19:29;;;;;;;6.93;6.53;;;;;;;;;;5076055;28;20100;-91
2023/03/21 14:21:57;;;;;;;5.00;4.75;;;;;;;;;;5075892;28;20048;-90
2023/03/21 14:24:24;;;;;;;8.32;7.93;;;;;;;;;;5075866;28;20048;-90
2023/03/21 14:26:52;;;;;;;5.85;5.03;;;;;;;;;;5075745;28;20509;-89
2023/03/21 14:29:20;;;;;;;11.95;11.35;;;;;;;;;;5074475;28;20053;-90
2023/03/21 14:31:47;;;;;;;10.70;10.20;;;;;;;;;;5074856;28;20127;-90
2023/03/21 14:34:15;;;;;;;8.98;8.57;;;;;;;;;;5075354;28;20124;-90
2023/03/21 14:36:42;;;;;;;7.38;7.03;;;;;;;;;;5074123;28;20052;-90
2023/03/21 14:39:14;;;;;;;9.23;8.82;;;;;;;;;;5066541;28;20052;-90
2023/03/21 14:41:43;;;;;;;5.85;5.55;;;;;;;;;;5074653;28;20052;-90
2023/03/21 14:44:21;;;;;;;4.90;4.57;;;;;;;;;;5075247;28;20456;-91
2023/03/21 14:46:47;;;;;;;9.43;8.77;;;;;;;;;;5075096;28;20055;-89
2023/03/21 14:49:18;;;;;;;5.47;5.07;;;;;;;;;;5074566;28;20045;-90
2023/03/21 14:51:45;;;;;;;5.05;4.80;;;;;;;;;;5085526;28;20102;-90